| time (UTC) | temp C | wind direction | speed KPH | gust KPH | rain 1hr cm | rain 24hr cm | rain mn cm | humidity % | barometer mb |
| 20260508165038 | 20 | 352 | 3.2 | 3.2 | 0.00 | 0.00 | 0.00 | 51 | 1019.0 |
| 20260508164534 | 19 | 269 | 3.2 | 4.8 | 0.00 | 0.00 | 0.00 | 49 | 1019.0 |
| 20260508164031 | 19 | 304 | 4.8 | 9.7 | 0.00 | 0.00 | 0.00 | 47 | 1019.4 |
| 20260508163529 | 19 | 261 | 3.2 | 4.8 | 0.00 | 0.00 | 0.00 | 51 | 1019.3 |
| 20260508163025 | 19 | 290 | 0.0 | 0.0 | 0.00 | 0.00 | 0.00 | 47 | 1019.3 |
| 20260508162522 | 18 | 278 | 0.0 | 4.8 | 0.00 | 0.00 | 0.00 | 50 | 1019.1 |
| 20260508162020 | 20 | 317 | 4.8 | 9.7 | 0.00 | 0.00 | 0.00 | 47 | 1019.5 |
| 20260508161516 | 20 | 269 | 4.8 | 4.8 | 0.00 | 0.00 | 0.00 | 55 | 1019.3 |
| 20260508161013 | 20 | 1 | 1.6 | 1.6 | 0.00 | 0.00 | 0.00 | 50 | 1019.7 |
| 20260508160512 | 18 | 244 | 1.6 | 3.2 | 0.00 | 0.00 | 0.00 | 53 | 1019.7 |
| 20260508160009 | 18 | 218 | 1.6 | 4.8 | 0.00 | 0.00 | 0.00 | 52 | 1019.7 |
| 20260508155505 | 19 | 149 | 4.8 | 9.7 | 0.00 | 0.00 | 0.00 | 52 | 1019.8 |
| 20260508155002 | 18 | 239 | 1.6 | 1.6 | 0.00 | 0.00 | 0.00 | 57 | 1019.7 |
| 20260508154500 | 19 | 313 | 0.0 | 1.6 | 0.00 | 0.00 | 0.00 | 59 | 1019.8 |
| 20260508153956 | 18 | 316 | 3.2 | 4.8 | 0.00 | 0.00 | 0.00 | 52 | 1019.8 |
| 20260508153453 | 18 | 28 | 1.6 | 4.8 | 0.00 | 0.00 | 0.00 | 53 | 1019.9 |
| 20260508152949 | 18 | 320 | 0.0 | 1.6 | 0.00 | 0.00 | 0.00 | 58 | 1019.8 |
| 20260508152446 | 18 | 312 | 0.0 | 3.2 | 0.00 | 0.00 | 0.00 | 61 | 1020.0 |
| 20260508151942 | 18 | 303 | 0.0 | 1.6 | 0.00 | 0.00 | 0.00 | 60 | 1019.9 |
| 20260508151439 | 18 | 294 | 0.0 | 1.6 | 0.00 | 0.00 | 0.00 | 58 | 1019.9 |
| 20260508150935 | 18 | 60 | 3.2 | 3.2 | 0.00 | 0.00 | 0.00 | 60 | 1019.8 |
| 20260508150432 | 18 | 39 | 3.2 | 3.2 | 0.00 | 0.00 | 0.00 | 58 | 1019.8 |
| 20260508145928 | 17 | 139 | 1.6 | 8.0 | 0.00 | 0.00 | 0.00 | 60 | 1019.8 |
| 20260508145425 | 17 | 284 | 3.2 | 8.0 | 0.00 | 0.00 | 0.00 | 60 | 1019.9 |
| 20260508144922 | 17 | 4 | 1.6 | 4.8 | 0.00 | 0.00 | 0.00 | 58 | 1019.9 |
| 20260508144420 | 17 | 206 | 1.6 | 3.2 | 0.00 | 0.00 | 0.00 | 59 | 1020.0 |
| 20260508143917 | 17 | 0 | 1.6 | 3.2 | 0.00 | 0.00 | 0.00 | 59 | 1019.9 |
| 20260508143414 | 17 | 328 | 4.8 | 9.7 | 0.00 | 0.00 | 0.00 | 60 | 1020.2 |
| 20260508142910 | 17 | 22 | 0.0 | 1.6 | 0.00 | 0.00 | 0.00 | 60 | 1020.2 |
| 20260508142408 | 17 | 263 | 1.6 | 3.2 | 0.00 | 0.00 | 0.00 | 60 | 1019.9 |
| 20260508141904 | 17 | 342 | 0.0 | 1.6 | 0.00 | 0.00 | 0.00 | 65 | 1020.0 |
| 20260508141401 | 17 | 343 | 0.0 | 3.2 | 0.00 | 0.00 | 0.00 | 61 | 1020.0 |
| 20260508140858 | 17 | 237 | 4.8 | 8.0 | 0.00 | 0.00 | 0.00 | 62 | 1020.2 |
| 20260508140355 | 17 | 353 | 0.0 | 3.2 | 0.00 | 0.00 | 0.00 | 66 | 1020.3 |
| 20260508135851 | 17 | 24 | 0.0 | 4.8 | 0.00 | 0.00 | 0.00 | 65 | 1020.2 |
| 20260508135347 | 17 | 271 | 1.6 | 1.6 | 0.00 | 0.00 | 0.00 | 67 | 1020.3 |
| 20260508134844 | 17 | 334 | 0.0 | 0.0 | 0.00 | 0.00 | 0.00 | 66 | 1020.0 |
| 20260508134340 | 17 | 353 | 0.0 | 0.0 | 0.00 | 0.00 | 0.00 | 68 | 1020.0 |
| 20260508133837 | 16 | 299 | 0.0 | 0.0 | 0.00 | 0.00 | 0.00 | 71 | 1020.2 |
| 20260508133335 | 16 | 313 | 0.0 | 0.0 | 0.00 | 0.00 | 0.00 | 75 | 1020.2 |
| 20260508132832 | 16 | 287 | 0.0 | 0.0 | 0.00 | 0.00 | 0.00 | 71 | 1020.0 |
| 20260508132329 | 16 | 288 | 0.0 | 0.0 | 0.00 | 0.00 | 0.00 | 75 | 1020.1 |
| 20260508131826 | 16 | 324 | 0.0 | 0.0 | 0.00 | 0.00 | 0.00 | 75 | 1019.9 |
| 20260508131321 | 16 | 289 | 0.0 | 0.0 | 0.00 | 0.00 | 0.00 | 78 | 1019.8 |
| 20260508130819 | 15 | 282 | 0.0 | 0.0 | 0.00 | 0.00 | 0.00 | 81 | 1020.0 |
| 20260508130316 | 16 | 287 | 0.0 | 0.0 | 0.00 | 0.00 | 0.00 | 79 | 1019.9 |
| 20260508125812 | 15 | 294 | 0.0 | 0.0 | 0.00 | 0.00 | 0.00 | 81 | 1019.8 |
| 20260508125308 | 14 | 271 | 0.0 | 0.0 | 0.00 | 0.00 | 0.00 | 84 | 1019.8 |
| 20260508124806 | 14 | 290 | 0.0 | 0.0 | 0.00 | 0.00 | 0.00 | 84 | 1019.7 |
| 20260508124303 | 14 | 287 | 0.0 | 0.0 | 0.00 | 0.00 | 0.00 | 84 | 1020.0 |
| 20260508123801 | 14 | 333 | 0.0 | 0.0 | 0.00 | 0.00 | 0.00 | 82 | 1019.5 |
| 20260508123259 | 13 | 286 | 0.0 | 0.0 | 0.00 | 0.00 | 0.00 | 84 | 1019.5 |
| 20260508122755 | 12 | 306 | 0.0 | 0.0 | 0.00 | 0.00 | 0.00 | 93 | 1019.6 |
| 20260508122252 | 12 | 329 | 0.0 | 0.0 | 0.00 | 0.00 | 0.00 | 97 | 1019.5 |
| 20260508121749 | 12 | 285 | 0.0 | 0.0 | 0.00 | 0.00 | 0.00 | 98 | 1019.4 |
| 20260508121248 | 12 | 289 | 0.0 | 0.0 | 0.00 | 0.00 | 0.00 | 99 | 1019.4 |
| 20260508120744 | 11 | 289 | 0.0 | 0.0 | 0.00 | 0.00 | 0.00 | 99 | 1019.3 |
| 20260508120243 | 10 | 289 | 0.0 | 0.0 | 0.00 | 0.00 | 0.00 | 99 | 1019.1 |
| 20260508115740 | 10 | 289 | 0.0 | 0.0 | 0.00 | 0.00 | 0.00 | 99 | 1019.3 |
| 20260508115237 | 10 | 289 | 0.0 | 0.0 | 0.00 | 0.00 | 0.00 | 99 | 1018.9 |
| 20260508114728 | 9 | 290 | 0.0 | 0.0 | 0.00 | 0.00 | 0.00 | 99 | 1019.1 |
| 20260508114224 | 9 | 290 | 0.0 | 0.0 | 0.00 | 0.00 | 0.00 | 99 | 1018.9 |
| 20260508113720 | 9 | 284 | 0.0 | 0.0 | 0.00 | 0.00 | 0.00 | 99 | 1018.8 |
| 20260508113214 | 8 | 274 | 0.0 | 0.0 | 0.00 | 0.00 | 0.00 | 99 | 1018.5 |
| 20260508112709 | 8 | 274 | 0.0 | 0.0 | 0.00 | 0.00 | 0.00 | 99 | 1018.5 |
| 20260508112207 | 8 | 274 | 0.0 | 0.0 | 0.00 | 0.00 | 0.00 | 99 | 1018.5 |
| 20260508111703 | 8 | 274 | 0.0 | 0.0 | 0.00 | 0.00 | 0.00 | 99 | 1018.5 |
| 20260508111201 | 7 | 274 | 0.0 | 0.0 | 0.00 | 0.00 | 0.00 | 99 | 1018.6 |
| 20260508110658 | 7 | 274 | 0.0 | 0.0 | 0.00 | 0.00 | 0.00 | 99 | 1018.6 |
| 20260508110154 | 7 | 274 | 0.0 | 0.0 | 0.00 | 0.00 | 0.00 | 99 | 1018.2 |
| 20260508105649 | 7 | 274 | 0.0 | 0.0 | 0.00 | 0.00 | 0.00 | 99 | 1018.2 |
| 20260508105146 | 7 | 274 | 0.0 | 0.0 | 0.00 | 0.00 | 0.00 | 99 | 1018.3 |
| 20260508104644 | 7 | 274 | 0.0 | 0.0 | 0.00 | 0.00 | 0.00 | 99 | 1018.1 |
| 20260508104140 | 7 | 274 | 0.0 | 0.0 | 0.00 | 0.00 | 0.00 | 99 | 1018.2 |
| 20260508103637 | 7 | 274 | 0.0 | 0.0 | 0.00 | 0.00 | 0.00 | 99 | 1017.6 |
| 20260508103135 | 7 | 274 | 0.0 | 0.0 | 0.00 | 0.00 | 0.00 | 99 | 1017.8 |
| 20260508102632 | 7 | 274 | 0.0 | 0.0 | 0.00 | 0.00 | 0.00 | 99 | 1017.9 |
| 20260508102130 | 7 | 274 | 0.0 | 0.0 | 0.00 | 0.00 | 0.00 | 99 | 1017.6 |
| 20260508101627 | 7 | 274 | 0.0 | 0.0 | 0.00 | 0.00 | 0.00 | 99 | 1017.4 |
| 20260508101124 | 7 | 274 | 0.0 | 0.0 | 0.00 | 0.00 | 0.00 | 99 | 1017.3 |
| 20260508100622 | 7 | 274 | 0.0 | 0.0 | 0.00 | 0.00 | 0.00 | 99 | 1017.4 |
| 20260508100120 | 7 | 274 | 0.0 | 0.0 | 0.00 | 0.00 | 0.00 | 99 | 1017.3 |
| 20260508095616 | 7 | 274 | 0.0 | 0.0 | 0.00 | 0.00 | 0.00 | 99 | 1017.5 |
| 20260508095113 | 7 | 274 | 0.0 | 0.0 | 0.00 | 0.00 | 0.00 | 99 | 1017.1 |
| 20260508094610 | 7 | 274 | 0.0 | 0.0 | 0.00 | 0.00 | 0.00 | 99 | 1017.2 |
| 20260508094106 | 7 | 274 | 0.0 | 0.0 | 0.00 | 0.00 | 0.00 | 99 | 1017.2 |
| 20260508093604 | 8 | 274 | 0.0 | 0.0 | 0.00 | 0.00 | 0.00 | 99 | 1017.2 |
| 20260508093102 | 8 | 274 | 0.0 | 0.0 | 0.00 | 0.00 | 0.00 | 99 | 1017.2 |
| 20260508092558 | 8 | 274 | 0.0 | 0.0 | 0.00 | 0.00 | 0.00 | 99 | 1017.4 |
| 20260508092057 | 8 | 274 | 0.0 | 0.0 | 0.00 | 0.00 | 0.00 | 99 | 1017.2 |
| 20260508091554 | 8 | 274 | 0.0 | 0.0 | 0.00 | 0.00 | 0.00 | 99 | 1017.0 |
| 20260508091050 | 8 | 274 | 0.0 | 0.0 | 0.00 | 0.00 | 0.00 | 99 | 1017.1 |
| 20260508090549 | 8 | 274 | 0.0 | 0.0 | 0.00 | 0.00 | 0.00 | 99 | 1017.0 |
| 20260508090045 | 8 | 273 | 0.0 | 0.0 | 0.00 | 0.00 | 0.00 | 99 | 1017.1 |
| 20260508085542 | 8 | 274 | 0.0 | 0.0 | 0.00 | 0.00 | 0.00 | 99 | 1017.0 |
| 20260508085039 | 8 | 274 | 0.0 | 0.0 | 0.00 | 0.00 | 0.00 | 99 | 1017.0 |
| 20260508084536 | 8 | 274 | 0.0 | 0.0 | 0.00 | 0.00 | 0.00 | 99 | 1017.1 |
| 20260508084033 | 8 | 274 | 0.0 | 0.0 | 0.00 | 0.00 | 0.00 | 99 | 1016.9 |
| 20260508083530 | 8 | 274 | 0.0 | 0.0 | 0.00 | 0.00 | 0.00 | 99 | 1016.9 |
| 20260508083027 | 8 | 274 | 0.0 | 0.0 | 0.00 | 0.00 | 0.00 | 99 | 1016.8 |
| 20260508082523 | 8 | 274 | 0.0 | 0.0 | 0.00 | 0.00 | 0.00 | 99 | 1017.0 |
| 20260508082020 | 8 | 274 | 0.0 | 0.0 | 0.00 | 0.00 | 0.00 | 99 | 1016.6 |
| 20260508081518 | 8 | 274 | 0.0 | 0.0 | 0.00 | 0.00 | 0.00 | 99 | 1016.7 |
| 20260508081013 | 8 | 274 | 0.0 | 0.0 | 0.00 | 0.00 | 0.00 | 99 | 1016.6 |
| 20260508080511 | 9 | 274 | 0.0 | 0.0 | 0.00 | 0.00 | 0.00 | 99 | 1016.7 |
| 20260508080009 | 9 | 274 | 0.0 | 0.0 | 0.00 | 0.00 | 0.00 | 99 | 1016.5 |
| 20260508075505 | 9 | 274 | 0.0 | 0.0 | 0.00 | 0.00 | 0.00 | 99 | 1016.5 |
| 20260508075003 | 9 | 274 | 0.0 | 0.0 | 0.00 | 0.00 | 0.00 | 99 | 1016.5 |
| 20260508074455 | 9 | 274 | 0.0 | 0.0 | 0.00 | 0.00 | 0.00 | 99 | 1016.4 |
| 20260508073951 | 9 | 273 | 0.0 | 0.0 | 0.00 | 0.00 | 0.00 | 99 | 1016.5 |
| 20260508073449 | 9 | 273 | 0.0 | 0.0 | 0.00 | 0.00 | 0.00 | 99 | 1016.4 |
| 20260508072945 | 9 | 301 | 0.0 | 0.0 | 0.00 | 0.00 | 0.00 | 99 | 1016.3 |
| 20260508072442 | 10 | 301 | 0.0 | 0.0 | 0.00 | 0.00 | 0.00 | 99 | 1016.7 |
| 20260508071939 | 10 | 301 | 0.0 | 0.0 | 0.00 | 0.00 | 0.00 | 99 | 1016.5 |
| 20260508071437 | 10 | 301 | 0.0 | 0.0 | 0.00 | 0.00 | 0.00 | 99 | 1016.2 |
| 20260508070934 | 10 | 301 | 0.0 | 0.0 | 0.00 | 0.00 | 0.00 | 99 | 1016.2 |
| 20260508070432 | 10 | 302 | 0.0 | 0.0 | 0.00 | 0.00 | 0.00 | 99 | 1016.1 |
| 20260508065930 | 10 | 302 | 0.0 | 0.0 | 0.00 | 0.00 | 0.00 | 99 | 1016.1 |
| 20260508065428 | 10 | 302 | 0.0 | 0.0 | 0.00 | 0.00 | 0.00 | 99 | 1016.1 |
| 20260508064925 | 10 | 302 | 0.0 | 0.0 | 0.00 | 0.00 | 0.00 | 99 | 1016.1 |
| 20260508064423 | 10 | 302 | 0.0 | 0.0 | 0.00 | 0.00 | 0.00 | 99 | 1016.2 |
| 20260508063921 | 10 | 302 | 0.0 | 0.0 | 0.00 | 0.00 | 0.00 | 99 | 1016.1 |
| 20260508063418 | 10 | 302 | 0.0 | 0.0 | 0.00 | 0.00 | 0.00 | 99 | 1016.1 |
| 20260508062915 | 10 | 302 | 0.0 | 0.0 | 0.00 | 0.00 | 0.00 | 99 | 1016.2 |
| 20260508062412 | 10 | 302 | 0.0 | 0.0 | 0.00 | 0.00 | 0.00 | 99 | 1016.1 |
| 20260508061909 | 10 | 302 | 0.0 | 0.0 | 0.00 | 0.00 | 0.00 | 99 | 1016.3 |
| 20260508061407 | 11 | 303 | 0.0 | 0.0 | 0.00 | 0.00 | 0.00 | 99 | 1016.5 |
| 20260508060903 | 10 | 290 | 0.0 | 0.0 | 0.00 | 0.00 | 0.00 | 99 | 1016.2 |
| 20260508060401 | 11 | 290 | 0.0 | 0.0 | 0.00 | 0.00 | 0.00 | 99 | 1016.3 |
| 20260508055856 | 11 | 290 | 0.0 | 0.0 | 0.00 | 0.00 | 0.00 | 99 | 1016.2 |
| 20260508055353 | 11 | 290 | 0.0 | 0.0 | 0.00 | 0.00 | 0.00 | 99 | 1016.4 |
| 20260508054850 | 11 | 290 | 0.0 | 0.0 | 0.00 | 0.00 | 0.00 | 99 | 1016.3 |
| 20260508054347 | 11 | 290 | 0.0 | 0.0 | 0.00 | 0.00 | 0.00 | 99 | 1016.1 |
| 20260508053844 | 11 | 290 | 0.0 | 0.0 | 0.00 | 0.00 | 0.00 | 99 | 1016.3 |
| 20260508053341 | 11 | 290 | 0.0 | 0.0 | 0.00 | 0.00 | 0.00 | 99 | 1016.3 |
| 20260508052838 | 11 | 290 | 0.0 | 0.0 | 0.00 | 0.00 | 0.00 | 99 | 1016.1 |
| 20260508052336 | 11 | 290 | 0.0 | 0.0 | 0.00 | 0.00 | 0.00 | 99 | 1016.2 |
| 20260508051832 | 11 | 290 | 0.0 | 0.0 | 0.00 | 0.00 | 0.00 | 99 | 1016.1 |
| 20260508051327 | 11 | 290 | 0.0 | 0.0 | 0.00 | 0.00 | 0.00 | 99 | 1016.0 |
| 20260508050824 | 11 | 290 | 0.0 | 0.0 | 0.00 | 0.00 | 0.00 | 99 | 1016.0 |
| 20260508050321 | 11 | 290 | 0.0 | 0.0 | 0.00 | 0.00 | 0.00 | 99 | 1016.2 |
| 20260508045816 | 12 | 290 | 0.0 | 0.0 | 0.00 | 0.00 | 0.00 | 99 | 1016.1 |
| 20260508045315 | 12 | 290 | 0.0 | 0.0 | 0.00 | 0.00 | 0.00 | 99 | 1016.0 |
| 20260508044812 | 12 | 290 | 0.0 | 0.0 | 0.00 | 0.00 | 0.00 | 99 | 1015.9 |
| 20260508044308 | 12 | 290 | 0.0 | 0.0 | 0.00 | 0.00 | 0.00 | 99 | 1015.8 |
| 20260508043804 | 12 | 290 | 0.0 | 0.0 | 0.00 | 0.00 | 0.00 | 99 | 1015.9 |
| 20260508043302 | 12 | 291 | 0.0 | 0.0 | 0.00 | 0.00 | 0.00 | 99 | 1015.9 |
| 20260508042758 | 12 | 291 | 0.0 | 0.0 | 0.00 | 0.00 | 0.00 | 99 | 1015.8 |
| 20260508042256 | 12 | 290 | 0.0 | 0.0 | 0.00 | 0.00 | 0.00 | 99 | 1015.7 |
| 20260508041753 | 13 | 291 | 0.0 | 0.0 | 0.00 | 0.00 | 0.00 | 99 | 1015.9 |
| 20260508041249 | 13 | 290 | 0.0 | 0.0 | 0.00 | 0.00 | 0.00 | 99 | 1015.9 |
| 20260508040745 | 13 | 291 | 0.0 | 0.0 | 0.00 | 0.00 | 0.00 | 99 | 1015.7 |
| 20260508040243 | 13 | 284 | 0.0 | 0.0 | 0.00 | 0.00 | 0.00 | 99 | 1015.6 |
| 20260508035740 | 13 | 285 | 0.0 | 0.0 | 0.00 | 2.92 | 2.92 | 99 | 1015.8 |
| 20260508035238 | 13 | 284 | 0.0 | 0.0 | 0.00 | 2.92 | 2.92 | 99 | 1015.7 |
| 20260508034734 | 13 | 285 | 0.0 | 0.0 | 0.00 | 2.92 | 2.92 | 99 | 1015.7 |
| 20260508034231 | 13 | 285 | 0.0 | 0.0 | 0.00 | 2.92 | 2.92 | 99 | 1015.7 |
| 20260508033728 | 13 | 285 | 0.0 | 0.0 | 0.00 | 2.92 | 2.92 | 99 | 1015.7 |
| 20260508033227 | 13 | 285 | 0.0 | 0.0 | 0.00 | 2.92 | 2.92 | 99 | 1015.6 |
| 20260508032724 | 13 | 285 | 0.0 | 0.0 | 0.00 | 2.92 | 2.92 | 99 | 1015.6 |
| 20260508032221 | 13 | 285 | 0.0 | 0.0 | 0.00 | 2.92 | 2.92 | 99 | 1015.6 |
| 20260508031718 | 13 | 285 | 0.0 | 0.0 | 0.00 | 2.92 | 2.92 | 99 | 1015.7 |
| 20260508031214 | 13 | 285 | 0.0 | 0.0 | 0.00 | 2.92 | 2.92 | 99 | 1015.5 |
| 20260508030710 | 14 | 285 | 0.0 | 0.0 | 0.00 | 2.92 | 2.92 | 99 | 1015.5 |
| 20260508030208 | 14 | 285 | 0.0 | 0.0 | 0.00 | 2.92 | 2.92 | 99 | 1015.5 |
| 20260508025704 | 14 | 285 | 0.0 | 0.0 | 0.00 | 2.92 | 2.92 | 99 | 1015.4 |
| 20260508025202 | 15 | 285 | 0.0 | 0.0 | 0.00 | 2.92 | 2.92 | 98 | 1015.4 |
| 20260508024657 | 15 | 285 | 0.0 | 0.0 | 0.00 | 2.92 | 2.92 | 98 | 1015.4 |
| 20260508024155 | 15 | 285 | 0.0 | 0.0 | 0.00 | 2.92 | 2.92 | 98 | 1015.1 |
| 20260508023650 | 15 | 298 | 0.0 | 0.0 | 0.00 | 2.92 | 2.92 | 98 | 1015.3 |
| 20260508023149 | 15 | 296 | 0.0 | 0.0 | 0.00 | 2.92 | 2.92 | 98 | 1015.3 |
| 20260508022644 | 15 | 296 | 0.0 | 0.0 | 0.00 | 2.92 | 2.92 | 98 | 1015.0 |
| 20260508022141 | 15 | 297 | 0.0 | 0.0 | 0.00 | 2.92 | 2.92 | 98 | 1015.1 |
| 20260508021637 | 15 | 296 | 0.0 | 0.0 | 0.00 | 2.92 | 2.92 | 98 | 1014.9 |
| 20260508021133 | 15 | 276 | 0.0 | 0.0 | 0.00 | 2.92 | 2.92 | 98 | 1015.2 |
| 20260508020631 | 15 | 276 | 0.0 | 0.0 | 0.00 | 2.92 | 2.92 | 97 | 1014.9 |
| 20260508020129 | 15 | 276 | 0.0 | 0.0 | 0.00 | 2.92 | 2.92 | 97 | 1014.8 |
| 20260508015626 | 15 | 276 | 0.0 | 0.0 | 0.00 | 2.92 | 2.92 | 96 | 1014.8 |
| 20260508015123 | 15 | 276 | 0.0 | 0.0 | 0.00 | 2.92 | 2.92 | 96 | 1014.8 |
| 20260508014619 | 15 | 276 | 0.0 | 0.0 | 0.00 | 2.92 | 2.92 | 96 | 1014.8 |
| 20260508014115 | 15 | 277 | 0.0 | 0.0 | 0.00 | 2.92 | 2.92 | 96 | 1014.1 |
| 20260508013611 | 15 | 284 | 0.0 | 1.6 | 0.00 | 2.92 | 2.92 | 95 | 1014.0 |
| 20260508013108 | 15 | 282 | 0.0 | 1.6 | 0.00 | 2.92 | 2.92 | 95 | 1014.3 |
| 20260508012606 | 15 | 287 | 0.0 | 1.6 | 0.00 | 2.92 | 2.92 | 95 | 1014.0 |
| 20260508012103 | 15 | 305 | 0.0 | 1.6 | 0.00 | 2.92 | 2.92 | 95 | 1014.0 |
| 20260508011601 | 15 | 293 | 0.0 | 3.2 | 0.00 | 2.92 | 2.92 | 95 | 1014.0 |
| 20260508011058 | 15 | 309 | 0.0 | 1.6 | 0.00 | 2.92 | 2.92 | 95 | 1013.7 |
| 20260508010555 | 16 | 280 | 0.0 | 1.6 | 0.00 | 2.92 | 2.92 | 95 | 1013.8 |
| 20260508010053 | 15 | 303 | 0.0 | 3.2 | 0.00 | 2.92 | 2.92 | 96 | 1013.4 |
| 20260508005549 | 16 | 348 | 1.6 | 3.2 | 0.00 | 2.92 | 2.92 | 96 | 1013.4 |
| 20260508005046 | 16 | 304 | 0.0 | 1.6 | 0.00 | 2.92 | 2.92 | 96 | 1013.4 |
| 20260508004541 | 16 | 274 | 1.6 | 1.6 | 0.00 | 2.92 | 2.92 | 96 | 1013.3 |
| 20260508004038 | 16 | 269 | 1.6 | 3.2 | 0.00 | 2.92 | 2.92 | 95 | 1013.1 |
| 20260508003535 | 16 | 283 | 0.0 | 1.6 | 0.00 | 2.92 | 2.92 | 95 | 1013.3 |
| 20260508003033 | 16 | 282 | 1.6 | 3.2 | 0.00 | 2.92 | 2.92 | 95 | 1013.1 |
| 20260508002529 | 16 | 299 | 0.0 | 1.6 | 0.00 | 2.92 | 2.92 | 95 | 1013.0 |
| 20260508002026 | 16 | 268 | 1.6 | 3.2 | 0.00 | 2.92 | 2.92 | 95 | 1012.7 |
| 20260508001522 | 16 | 291 | 1.6 | 4.8 | 0.00 | 2.92 | 2.92 | 95 | 1012.6 |
| 20260508000352 | 16 | 282 | 1.6 | 3.2 | 0.00 | 2.92 | 2.92 | 95 | 1012.4 |
| 20260507235849 | 16 | 282 | 1.6 | 3.2 | 0.00 | 2.92 | 2.92 | 95 | 1012.4 |
| 20260507235347 | 16 | 316 | 1.6 | 3.2 | 0.00 | 2.92 | 2.92 | 95 | 1012.4 |
| 20260507234843 | 16 | 283 | 1.6 | 8.0 | 0.00 | 2.92 | 2.92 | 95 | 1012.2 |
| 20260507234340 | 16 | 265 | 1.6 | 3.2 | 0.00 | 2.92 | 2.92 | 95 | 1012.2 |
| 20260507233836 | 16 | 319 | 1.6 | 4.8 | 0.00 | 2.92 | 2.92 | 95 | 1012.1 |
| 20260507233334 | 16 | 324 | 4.8 | 8.0 | 0.00 | 2.92 | 2.92 | 94 | 1011.5 |
| 20260507232832 | 16 | 323 | 8.0 | 12.9 | 0.00 | 2.92 | 2.92 | 94 | 1011.2 |
| 20260507232328 | 16 | 316 | 6.4 | 11.3 | 0.00 | 2.92 | 2.92 | 94 | 1011.4 |
| 20260507231825 | 16 | 256 | 6.4 | 11.3 | 0.00 | 2.92 | 2.92 | 94 | 1011.6 |
| 20260507231322 | 17 | 292 | 1.6 | 4.8 | 0.00 | 2.92 | 2.92 | 94 | 1011.1 |
| 20260507230818 | 17 | 286 | 3.2 | 8.0 | 0.00 | 2.92 | 2.92 | 93 | 1010.7 |
| 20260507230316 | 17 | 329 | 0.0 | 1.6 | 0.00 | 2.92 | 2.92 | 92 | 1011.1 |
| 20260507225816 | 17 | 299 | 9.7 | 12.9 | 0.00 | 2.92 | 2.92 | 91 | 1010.7 |
| 20260507225312 | 18 | 310 | 4.8 | 4.8 | 0.00 | 2.92 | 2.92 | 90 | 1010.7 |
| 20260507224808 | 21 | 285 | 6.4 | 17.7 | 0.00 | 2.92 | 2.92 | 82 | 1010.5 |
| 20260507224305 | 21 | 285 | 6.4 | 17.7 | 0.00 | 2.92 | 2.92 | 82 | 1010.5 |
| 20260507223801 | 21 | 285 | 6.4 | 17.7 | 0.00 | 2.92 | 2.92 | 82 | 1010.5 |
| 20260507223257 | 23 | 283 | 9.7 | 20.9 | 0.00 | 2.92 | 2.92 | 76 | 1009.7 |
| 20260507222755 | 24 | 317 | 0.0 | 0.0 | 0.00 | 2.92 | 2.92 | 72 | 1009.1 |
| 20260507222251 | 25 | 288 | 0.0 | 1.6 | 0.00 | 2.92 | 2.92 | 73 | 1009.0 |
| 20260507221748 | 25 | 274 | 1.6 | 1.6 | 0.00 | 2.92 | 2.92 | 68 | 1009.0 |
| 20260507221244 | 25 | 191 | 1.6 | 3.2 | 0.00 | 2.92 | 2.92 | 67 | 1008.9 |
| 20260507220740 | 25 | 272 | 0.0 | 3.2 | 0.00 | 2.92 | 2.92 | 72 | 1008.9 |
| 20260507220239 | 25 | 318 | 4.8 | 9.7 | 0.00 | 2.92 | 2.92 | 67 | 1008.9 |
| 20260507215735 | 25 | 231 | 1.6 | 3.2 | 0.00 | 2.92 | 2.92 | 71 | 1009.0 |
| 20260507215233 | 25 | 265 | 3.2 | 4.8 | 0.00 | 2.92 | 2.92 | 69 | 1009.1 |
| 20260507214730 | 25 | 148 | 1.6 | 3.2 | 0.00 | 2.92 | 2.92 | 69 | 1008.9 |
| 20260507214227 | 25 | 298 | 1.6 | 4.8 | 0.00 | 2.92 | 2.92 | 72 | 1008.8 |
| 20260507213721 | 25 | 178 | 4.8 | 8.0 | 0.00 | 2.92 | 2.92 | 69 | 1008.9 |
| 20260507212421 | 25 | 10 | 0.0 | 4.8 | 0.00 | 2.92 | 2.92 | 73 | 1008.9 |
| 20260507211919 | 25 | 10 | 0.0 | 4.8 | 0.00 | 2.92 | 2.92 | 73 | 1008.9 |
| 20260507211415 | 25 | 176 | 3.2 | 4.8 | 0.00 | 2.92 | 2.92 | 70 | 1008.8 |
| 20260507210912 | 24 | 232 | 0.0 | 3.2 | 0.00 | 2.92 | 2.92 | 75 | 1008.7 |
| 20260507210409 | 24 | 246 | 1.6 | 3.2 | 0.00 | 2.92 | 2.92 | 74 | 1008.7 |
| 20260507205905 | 24 | 340 | 1.6 | 3.2 | 0.00 | 2.92 | 2.92 | 71 | 1008.6 |
| 20260507205403 | 25 | 180 | 6.4 | 9.7 | 0.00 | 2.92 | 2.92 | 69 | 1009.1 |
| 20260507204859 | 25 | 216 | 6.4 | 9.7 | 0.00 | 2.92 | 2.92 | 69 | 1008.9 |
| 20260507204355 | 25 | 129 | 4.8 | 8.0 | 0.00 | 2.92 | 2.92 | 69 | 1009.0 |
| 20260507203853 | 25 | 292 | 0.0 | 3.2 | 0.00 | 2.92 | 2.92 | 70 | 1008.9 |
| 20260507203351 | 25 | 216 | 3.2 | 11.3 | 0.00 | 2.92 | 2.92 | 67 | 1008.8 |
| 20260507202847 | 25 | 298 | 3.2 | 4.8 | 0.00 | 2.92 | 2.92 | 69 | 1008.5 |
| 20260507202343 | 25 | 60 | 1.6 | 1.6 | 0.00 | 2.92 | 2.92 | 66 | 1008.4 |
| 20260507201839 | 25 | 258 | 1.6 | 3.2 | 0.00 | 2.92 | 2.92 | 69 | 1008.7 |
| 20260507201334 | 24 | 159 | 3.2 | 4.8 | 0.00 | 2.92 | 2.92 | 71 | 1009.0 |
| 20260507200831 | 24 | 267 | 1.6 | 9.7 | 0.00 | 2.92 | 2.92 | 70 | 1009.0 |
| 20260507200327 | 25 | 224 | 3.2 | 8.0 | 0.00 | 2.92 | 2.92 | 67 | 1008.9 |
| 20260507195823 | 25 | 276 | 1.6 | 4.8 | 0.00 | 2.92 | 2.92 | 67 | 1008.8 |
| 20260507195321 | 25 | 194 | 3.2 | 4.8 | 0.00 | 2.92 | 2.92 | 67 | 1009.0 |
| 20260507194818 | 25 | 2 | 1.6 | 3.2 | 0.00 | 2.92 | 2.92 | 66 | 1008.9 |
| 20260507194314 | 26 | 222 | 4.8 | 4.8 | 0.00 | 2.92 | 2.92 | 69 | 1009.0 |
| 20260507193810 | 25 | 255 | 3.2 | 4.8 | 0.00 | 2.92 | 2.92 | 65 | 1009.2 |
| 20260507193308 | 25 | 279 | 1.6 | 8.0 | 0.00 | 2.92 | 2.92 | 70 | 1009.4 |
| 20260507192803 | 25 | 64 | 1.6 | 4.8 | 0.00 | 2.92 | 2.92 | 67 | 1009.5 |
| 20260507192301 | 25 | 70 | 1.6 | 3.2 | 0.00 | 2.92 | 2.92 | 69 | 1009.5 |
| 20260507191756 | 23 | 265 | 0.0 | 3.2 | 0.00 | 2.92 | 2.92 | 74 | 1009.8 |
| 20260507191253 | 25 | 240 | 4.8 | 9.7 | 0.00 | 2.92 | 2.92 | 67 | 1010.1 |
| 20260507190750 | 25 | 306 | 1.6 | 8.0 | 0.00 | 2.92 | 2.92 | 69 | 1010.0 |
| 20260507190249 | 25 | 72 | 3.2 | 4.8 | 0.00 | 2.92 | 2.92 | 71 | 1009.9 |
| 20260507185747 | 25 | 271 | 0.0 | 8.0 | 0.00 | 2.92 | 2.92 | 71 | 1009.8 |
| 20260507185243 | 25 | 77 | 4.8 | 4.8 | 0.00 | 2.92 | 2.92 | 71 | 1009.9 |
| 20260507184741 | 24 | 19 | 1.6 | 8.0 | 0.00 | 2.92 | 2.92 | 73 | 1009.9 |
| 20260507184239 | 24 | 176 | 4.8 | 9.7 | 0.00 | 2.92 | 2.92 | 72 | 1009.9 |
| 20260507183735 | 24 | 252 | 4.8 | 9.7 | 0.00 | 2.92 | 2.92 | 76 | 1010.0 |
| 20260507183232 | 23 | 138 | 1.6 | 3.2 | 0.00 | 2.92 | 2.92 | 77 | 1009.7 |
| 20260507182730 | 23 | 229 | 3.2 | 9.7 | 0.00 | 2.92 | 2.92 | 74 | 1010.0 |
| 20260507182225 | 23 | 274 | 0.0 | 3.2 | 0.00 | 2.92 | 2.92 | 75 | 1010.0 |
| 20260507181722 | 23 | 247 | 4.8 | 9.7 | 0.00 | 2.92 | 2.92 | 76 | 1010.0 |
| 20260507181218 | 23 | 149 | 1.6 | 3.2 | 0.00 | 2.92 | 2.92 | 76 | 1009.9 |
| 20260507180715 | 23 | 230 | 0.0 | 4.8 | 0.00 | 2.92 | 2.92 | 77 | 1009.9 |
| 20260507180212 | 23 | 117 | 3.2 | 8.0 | 0.00 | 2.92 | 2.92 | 77 | 1009.9 |
| 20260507175707 | 23 | 23 | 1.6 | 4.8 | 0.00 | 2.92 | 2.92 | 79 | 1010.1 |
| 20260507175204 | 22 | 243 | 3.2 | 4.8 | 0.00 | 2.92 | 2.92 | 84 | 1009.9 |
| 20260507174702 | 22 | 251 | 1.6 | 3.2 | 0.00 | 2.92 | 2.92 | 82 | 1010.3 |
| 20260507174200 | 22 | 171 | 1.6 | 9.7 | 0.00 | 2.92 | 2.92 | 83 | 1010.2 |
| 20260507173657 | 22 | 273 | 3.2 | 8.0 | 0.00 | 2.92 | 2.92 | 84 | 1010.4 |
| 20260507173153 | 21 | 75 | 1.6 | 4.8 | 0.00 | 2.92 | 2.92 | 83 | 1010.7 |
| 20260507172650 | 21 | 212 | 1.6 | 8.0 | 0.00 | 2.92 | 2.92 | 84 | 1010.7 |
| 20260507172148 | 22 | 289 | 1.6 | 4.8 | 0.00 | 2.92 | 2.92 | 85 | 1010.7 |
| 20260507171647 | 21 | 21 | 1.6 | 8.0 | 0.00 | 2.92 | 2.92 | 85 | 1011.0 |
| 20260507171145 | 21 | 220 | 1.6 | 1.6 | 0.00 | 2.92 | 2.92 | 89 | 1011.0 |
| 20260507170642 | 21 | 274 | 1.6 | 3.2 | 0.00 | 2.92 | 2.92 | 86 | 1010.9 |
| 20260507170139 | 21 | 202 | 3.2 | 4.8 | 0.00 | 2.92 | 2.92 | 86 | 1010.7 |
| 20260507165634 | 21 | 205 | 4.8 | 4.8 | 0.00 | 2.92 | 2.92 | 87 | 1010.3 |